Terminal Aerodrome Forecast
Issued by NWS

Home | Current Version | Previous Version | Text Only | Print | Product List | Glossary On
Versions: 1 2 3 4 5 6 7 8 9 10 11
000
FTUS43 KAPX 042338
TAFPLN
TAF
KPLN 042338Z 0500/0524 28005KT P6SM SCT250
     FM050100 00000KT P6SM SCT250
     FM050500 00000KT 2SM BR SCT250
      TEMPO 0507/0511 1SM BR SCT200
     FM051300 21006KT P6SM FEW015
     FM051700 26007KT P6SM SCT050=

USA.gov is the U.S. government's official web portal to all federal, state and local government web resources and services.